createdAt,value
2022-08-22T00:00:48.621Z,17.77
2022-08-22T00:03:07.261Z,17.97
2022-08-22T00:06:11.736Z,17.72
2022-08-22T00:11:25.812Z,17.64
2022-08-22T00:16:38.429Z,17.56
2022-08-22T00:21:51.031Z,17.51
2022-08-22T00:27:01.929Z,17.47
2022-08-22T00:32:10.625Z,17.43
2022-08-22T00:37:22.190Z,17.35
2022-08-22T00:42:49.809Z,17.31
2022-08-22T00:48:10.444Z,17.30
2022-08-22T00:53:43.020Z,17.26
2022-08-22T00:59:23.962Z,17.21
2022-08-22T01:04:44.823Z,17.15
2022-08-22T01:10:04.049Z,17.10
2022-08-22T01:15:13.644Z,17.08
2022-08-22T01:20:45.955Z,17.10
2022-08-22T01:26:38.673Z,17.12
2022-08-22T01:32:20.560Z,17.12
2022-08-22T01:37:55.690Z,17.10
2022-08-22T01:43:10.302Z,17.05
2022-08-22T01:48:20.583Z,17.00
2022-08-22T01:53:31.310Z,16.98
2022-08-22T01:58:43.379Z,16.95
2022-08-22T02:04:04.114Z,16.88
2022-08-22T02:09:16.115Z,16.76
2022-08-22T02:14:33.201Z,16.73
2022-08-22T02:19:49.713Z,16.73
2022-08-22T02:25:08.875Z,16.80
2022-08-22T02:30:18.876Z,16.81
2022-08-22T02:35:31.084Z,16.79
2022-08-22T02:40:41.728Z,16.87
2022-08-22T02:46:05.698Z,17.01
2022-08-22T02:51:19.454Z,17.17
2022-08-22T02:56:33.190Z,17.24
2022-08-22T03:01:42.819Z,17.31
2022-08-22T03:07:05.685Z,17.41
2022-08-22T03:12:20.678Z,17.52
2022-08-22T03:17:30.556Z,17.63
2022-08-22T03:22:44.659Z,17.79
2022-08-22T03:27:58.804Z,17.92
2022-08-22T03:33:22.862Z,17.97
2022-08-22T03:38:43.626Z,17.97
2022-08-22T03:44:07.995Z,17.97
2022-08-22T03:49:46.818Z,18.01
2022-08-22T03:55:16.059Z,18.10
2022-08-22T04:00:43.222Z,18.12
2022-08-22T04:06:18.831Z,18.13
2022-08-22T04:11:57.164Z,18.16
2022-08-22T04:17:20.168Z,18.21
2022-08-22T04:22:49.782Z,18.27
2022-08-22T04:28:06.176Z,18.39
2022-08-22T04:33:18.008Z,19.11
2022-08-22T04:38:31.066Z,20.23
2022-08-22T04:43:41.352Z,20.29
2022-08-22T04:48:54.953Z,21.52
2022-08-22T04:54:33.523Z,23.33
2022-08-22T04:59:41.921Z,24.94
2022-08-22T05:05:01.572Z,26.14
2022-08-22T05:10:17.039Z,27.25
2022-08-22T05:15:32.982Z,28.59
2022-08-22T05:20:53.335Z,29.74
2022-08-22T05:26:18.508Z,30.77
2022-08-22T05:31:46.856Z,31.95
2022-08-22T05:37:34.331Z,33.06
2022-08-22T05:42:56.894Z,34.39
2022-08-22T05:48:22.806Z,35.53
2022-08-22T05:53:35.448Z,36.44
2022-08-22T05:58:55.013Z,36.85
2022-08-22T06:04:08.330Z,37.25
2022-08-22T06:09:27.016Z,38.21
2022-08-22T06:14:45.890Z,39.39
2022-08-22T06:19:54.402Z,40.00
2022-08-22T06:25:12.475Z,40.78
2022-08-22T06:30:19.694Z,41.52
2022-08-22T06:35:28.603Z,41.63
2022-08-22T06:40:34.803Z,42.02
2022-08-22T06:45:59.025Z,42.24
2022-08-22T06:51:48.879Z,42.11
2022-08-22T06:57:50.045Z,42.25
2022-08-22T07:03:31.530Z,42.99
2022-08-22T07:09:13.893Z,43.18
2022-08-22T07:14:59.830Z,43.12
2022-08-22T07:24:58.232Z,43.70
2022-08-22T07:30:10.226Z,43.01
2022-08-22T07:35:20.387Z,40.34
2022-08-22T07:40:32.533Z,38.06
2022-08-22T07:45:46.983Z,37.26
2022-08-22T07:51:01.236Z,38.51
2022-08-22T07:56:10.047Z,39.85
2022-08-22T08:01:21.310Z,39.55
2022-08-22T08:06:29.093Z,40.47
2022-08-22T08:11:41.895Z,41.10
2022-08-22T08:16:54.355Z,41.15
2022-08-22T08:22:00.729Z,40.21
2022-08-22T08:27:27.003Z,40.55
2022-08-22T08:32:39.676Z,41.14
2022-08-22T08:37:49.415Z,41.61
2022-08-22T08:43:29.878Z,41.73
2022-08-22T08:48:59.686Z,41.89
2022-08-22T08:54:21.968Z,41.96
2022-08-22T08:59:44.960Z,39.58
2022-08-22T09:05:16.445Z,37.64
2022-08-22T09:10:59.243Z,36.55
2022-08-22T09:16:32.158Z,35.97
2022-08-22T09:22:04.304Z,35.45
2022-08-22T09:27:17.170Z,36.55
2022-08-22T09:32:38.712Z,36.45
2022-08-22T09:37:58.173Z,37.29
2022-08-22T09:43:09.330Z,35.58
2022-08-22T09:48:38.806Z,33.93
2022-08-22T09:54:12.763Z,33.01
2022-08-22T09:59:36.727Z,34.18
2022-08-22T10:05:00.944Z,35.52
2022-08-22T10:10:24.507Z,35.36
2022-08-22T10:15:39.614Z,35.06
2022-08-22T10:20:58.385Z,35.25
2022-08-22T10:26:22.970Z,33.79
2022-08-22T10:31:58.535Z,32.90
2022-08-22T10:37:15.975Z,31.77
2022-08-22T10:42:28.268Z,30.97
2022-08-22T10:47:39.975Z,30.21
2022-08-22T10:52:49.455Z,29.53
2022-08-22T10:58:05.957Z,29.04
2022-08-22T11:03:21.433Z,28.60
2022-08-22T11:08:59.885Z,28.26
2022-08-22T11:14:25.987Z,27.97
2022-08-22T11:19:47.803Z,27.69
2022-08-22T11:25:35.904Z,27.59
2022-08-22T11:30:54.753Z,27.75
2022-08-22T11:36:26.351Z,27.99
2022-08-22T11:41:42.079Z,28.23
2022-08-22T11:46:51.141Z,28.33
2022-08-22T11:52:08.547Z,28.44
2022-08-22T11:57:19.451Z,28.65
2022-08-22T12:02:31.963Z,28.72
2022-08-22T12:07:50.539Z,28.74
2022-08-22T12:13:05.098Z,28.65
2022-08-22T12:18:34.577Z,28.68
2022-08-22T12:23:55.608Z,28.77
2022-08-22T12:29:17.098Z,28.68
2022-08-22T12:34:33.783Z,28.68
2022-08-22T12:39:54.943Z,28.82
2022-08-22T12:45:20.193Z,28.95
2022-08-22T12:50:41.611Z,29.12
2022-08-22T12:56:06.709Z,29.33
2022-08-22T13:01:17.728Z,29.40
2022-08-22T13:06:52.871Z,29.48
2022-08-22T13:12:03.078Z,29.81
2022-08-22T13:17:24.507Z,29.84
2022-08-22T13:22:35.361Z,29.74
2022-08-22T13:27:51.381Z,29.59
2022-08-22T13:33:05.575Z,29.59
2022-08-22T13:38:18.109Z,29.76
2022-08-22T13:43:36.457Z,29.79
2022-08-22T13:48:54.933Z,29.97
2022-08-22T13:54:40.106Z,29.96
2022-08-22T13:59:51.680Z,29.82
2022-08-22T14:05:05.297Z,29.72
2022-08-22T14:10:18.706Z,29.72
2022-08-22T14:15:32.100Z,29.63
2022-08-22T14:20:41.610Z,29.44
2022-08-22T14:25:49.053Z,29.24
2022-08-22T14:31:01.033Z,29.12
2022-08-22T14:36:17.266Z,29.07
2022-08-22T14:41:52.524Z,28.96
2022-08-22T14:47:00.611Z,28.86
2022-08-22T14:52:10.366Z,28.71
2022-08-22T14:57:25.902Z,28.73
2022-08-22T15:02:33.120Z,28.72
2022-08-22T15:07:39.131Z,28.64
2022-08-22T15:12:51.402Z,28.55
2022-08-22T15:17:57.480Z,28.50
2022-08-22T15:23:10.132Z,28.46
2022-08-22T15:28:20.812Z,28.43
2022-08-22T15:33:33.628Z,28.31
2022-08-22T15:38:44.408Z,28.19
2022-08-22T15:44:02.187Z,28.01
2022-08-22T15:49:12.766Z,27.85
2022-08-22T15:54:24.873Z,27.68
2022-08-22T15:59:53.602Z,27.49
2022-08-22T16:05:22.858Z,27.38
2022-08-22T16:10:37.926Z,27.25
2022-08-22T16:16:00.894Z,27.16
2022-08-22T16:21:08.281Z,27.07
2022-08-22T16:26:18.141Z,26.96
2022-08-22T16:31:30.539Z,26.81
2022-08-22T16:36:43.971Z,26.65
2022-08-22T16:41:51.715Z,26.54
2022-08-22T16:47:11.044Z,26.44
2022-08-22T16:52:54.841Z,26.29
2022-08-22T16:58:07.103Z,26.12
2022-08-22T17:03:19.671Z,26.00
2022-08-22T17:08:42.848Z,25.84
2022-08-22T17:14:08.576Z,25.66
2022-08-22T17:19:45.413Z,25.50
2022-08-22T17:25:03.309Z,25.31
2022-08-22T17:30:13.400Z,25.11
2022-08-22T17:35:38.118Z,24.99
2022-08-22T17:40:57.695Z,24.84
2022-08-22T17:46:17.875Z,24.66
2022-08-22T17:51:30.679Z,24.49
2022-08-22T17:56:45.530Z,24.34
2022-08-22T18:01:57.889Z,24.19
2022-08-22T18:07:24.215Z,24.02
2022-08-22T18:12:38.206Z,23.84
2022-08-22T18:17:52.235Z,23.69
2022-08-22T18:23:01.966Z,23.56
2022-08-22T18:28:14.182Z,23.42
2022-08-22T18:33:31.014Z,23.31
2022-08-22T18:38:47.875Z,23.22
2022-08-22T18:43:54.271Z,23.18
2022-08-22T18:49:17.528Z,23.17
2022-08-22T18:54:38.975Z,23.00
2022-08-22T18:59:57.630Z,22.76
2022-08-22T19:05:40.381Z,22.57
2022-08-22T19:10:54.388Z,22.43
2022-08-22T19:16:14.320Z,22.27
2022-08-22T19:21:43.979Z,22.14
2022-08-22T19:27:10.788Z,22.04
2022-08-22T19:32:47.568Z,22.00
2022-08-22T19:37:55.868Z,21.98
2022-08-22T19:43:18.586Z,21.99
2022-08-22T19:48:28.926Z,21.96
2022-08-22T19:53:41.721Z,21.92
2022-08-22T19:59:01.943Z,21.89
2022-08-22T20:04:23.782Z,21.81
2022-08-22T20:09:39.263Z,21.75
2022-08-22T20:14:47.377Z,21.69
2022-08-22T20:25:42.643Z,21.68
2022-08-22T20:30:56.474Z,21.65
2022-08-22T20:36:05.231Z,21.62
2022-08-22T20:41:20.981Z,21.61
2022-08-22T20:46:43.845Z,21.63
2022-08-22T20:51:57.709Z,21.58
2022-08-22T20:57:12.440Z,21.50
2022-08-22T21:02:23.198Z,21.43
2022-08-22T21:07:31.788Z,21.42
2022-08-22T21:12:37.272Z,21.39
2022-08-22T21:17:42.755Z,21.33
2022-08-22T21:22:49.625Z,21.29
2022-08-22T21:27:55.354Z,21.24
2022-08-22T21:33:00.974Z,21.18
2022-08-22T21:38:07.210Z,21.12
2022-08-22T21:43:27.883Z,21.09
2022-08-22T21:48:39.988Z,21.08
2022-08-22T21:53:45.504Z,21.02
2022-08-22T21:58:50.856Z,20.93
2022-08-22T22:03:59.043Z,20.84
2022-08-22T22:09:06.215Z,20.80
2022-08-22T22:14:11.836Z,20.80
2022-08-22T22:19:17.325Z,20.74
2022-08-22T22:24:23.019Z,20.64
2022-08-22T22:29:28.724Z,20.58
2022-08-22T22:34:34.602Z,20.57
2022-08-22T22:39:40.689Z,20.52
2022-08-22T22:44:47.867Z,20.47
2022-08-22T22:49:55.516Z,20.42
2022-08-22T22:55:01.311Z,20.35
2022-08-22T23:00:11.119Z,20.34
2022-08-22T23:05:16.934Z,20.37
2022-08-22T23:10:22.409Z,20.34
2022-08-22T23:15:28.225Z,20.27
2022-08-22T23:20:33.868Z,20.20
2022-08-22T23:25:39.657Z,20.12
2022-08-22T23:30:45.087Z,20.10
2022-08-22T23:35:51.516Z,20.10
2022-08-22T23:41:09.802Z,20.00
2022-08-22T23:46:17.616Z,19.94
2022-08-22T23:51:25.891Z,19.86
2022-08-22T23:56:35.563Z,19.83
